Hampton, NH (03843)

4:41 PM EDT on July 26, 2016 (GMT -0400)
Between beach and center of town | | Change Station

Elev 69 ft 42.94 °N, 70.83 °W | Updated 12 minutes ago

Scattered Clouds
Scattered Clouds
90.4 °F
Feels Like 93 °F
N
2.6
Wind Variable Wind from North

Today
High -- | Low -- °F
--% Chance of Precip.
Yesterday
High -- | Low -- °F
Precip. -- in
Pressure 29.77 in
Visibility 10.0 miles
Clouds Scattered Clouds 6500 ft
Heat Index 93 °F
Dew Point 66 °F
Humidity 44%
Rainfall Not available.
Snow Depth Not available.
5:28 AM 8:10 PM
Waning Gibbous, 51% visible
METAR KPSM 261958Z 31010KT 10SM SCT065 32/17 A2976 RMK AO2A SLP079 T03150171
Pressure 29.77 in
Visibility 10.0 miles
Clouds Scattered Clouds 6500 ft
Heat Index 93 °F
Dew Point 66 °F
Humidity 44%
Rainfall Not available.
Snow Depth Not available.
5:28 AM 8:10 PM
Waning Gibbous, 51% visible
METAR KPSM 261958Z 31010KT 10SM SCT065 32/17 A2976 RMK AO2A SLP079 T03150171

10-Day Weather Forecast

Almanac

Astronomy

Jul. 26, 2016 Rise Set
Actual Time
Civil Twilight
Nautical Twilight
Astronomical Twilight
Moon
Length of Visible Light
Length of Day
Tomorrow will be .
, % of the Moon is Illuminated

Today's Extremes

State Highs State Lows

Community

WunderPhotos

Upload Photos

1,927,678 photos uploaded!

WunderBlog® & News

Nearby

Air Quality

  Air Quality AQ Index Pollutant
Not available.

Snow Depth

Station Depth Elevation

Earthquake Activity

City Distance Mag. Time & Date
Minimum magnitude displayed is 2.5.

Coastal Water Temperatures

Place Temperature

Stations

Nearby Weather Stations

Station Location Temp. Windchill Dew Point Humidity Wind Precip. Elev Updated Type
                   

Watches & Warnings

There are currently no watches in effect.